Time;durP1;ratioP1;P1;durP2;ratioP2;P2;SDS_P1;SDS_P2;PMS_P1;PMS_P2;Temp;Humidity;BMP_temperature;BMP_pressure;BME280_temperature;BME280_humidity;BME280_pressure;Samples;Min_cycle;Max_cycle;Signal;HPM_P1;HPM_P2
2021/07/06 00:02:01;;;;;;;15.73;14.53;;;17.60;99.90;;;;;;5111218;28;20488;-75
2021/07/06 00:04:28;;;;;;;16.93;15.70;;;17.60;99.90;;;;;;5111511;28;20448;-74
2021/07/06 00:06:56;;;;;;;15.60;14.80;;;17.60;99.90;;;;;;5111629;28;20446;-74
2021/07/06 00:09:23;;;;;;;16.00;15.10;;;17.60;99.90;;;;;;5111123;28;20818;-73
2021/07/06 00:11:50;;;;;;;15.57;14.70;;;17.60;99.90;;;;;;5111347;28;20448;-74
2021/07/06 00:14:17;;;;;;;14.27;13.57;;;17.60;99.90;;;;;;5111335;28;20823;-74
2021/07/06 00:16:44;;;;;;;12.80;12.30;;;17.50;99.90;;;;;;5115711;28;20445;-74
2021/07/06 00:19:10;;;;;;;13.20;12.60;;;17.50;99.90;;;;;;5115260;28;20449;-74
2021/07/06 00:21:37;;;;;;;14.57;13.57;;;17.40;99.90;;;;;;5115333;28;20477;-73
2021/07/06 00:24:05;;;;;;;13.40;12.87;;;17.40;99.90;;;;;;5115464;28;20445;-73
2021/07/06 00:26:32;;;;;;;14.07;13.37;;;17.30;99.90;;;;;;5115290;28;20445;-74
2021/07/06 00:28:59;;;;;;;14.20;13.50;;;17.30;99.90;;;;;;5115359;28;20441;-73
2021/07/06 00:31:25;;;;;;;14.37;13.77;;;17.40;99.90;;;;;;5115142;28;20897;-74
2021/07/06 00:33:52;;;;;;;14.00;13.10;;;17.30;99.90;;;;;;5115170;28;20453;-74
2021/07/06 00:36:19;;;;;;;14.27;13.37;;;17.30;99.90;;;;;;5115050;28;20464;-73
2021/07/06 00:38:46;;;;;;;14.77;14.07;;;17.30;99.90;;;;;;5115191;28;20965;-74
2021/07/06 00:41:14;;;;;;;14.00;13.40;;;17.30;99.90;;;;;;5114971;28;20463;-74
2021/07/06 00:43:41;;;;;;;14.20;13.50;;;17.20;99.90;;;;;;5115111;28;20449;-74
2021/07/06 00:46:08;;;;;;;14.83;13.93;;;17.20;99.90;;;;;;5114796;28;20911;-74
2021/07/06 00:48:35;;;;;;;14.27;13.57;;;17.20;99.90;;;;;;5114980;28;20505;-75
2021/07/06 00:51:02;;;;;;;14.80;14.10;;;17.20;99.90;;;;;;5115221;28;20837;-75
2021/07/06 00:53:28;;;;;;;14.60;13.60;;;17.10;99.90;;;;;;5115017;28;20445;-75
2021/07/06 00:55:57;;;;;;;14.23;13.30;;;17.20;99.90;;;;;;5115023;28;20506;-75
2021/07/06 00:58:27;;;;;;;14.23;13.53;;;17.10;99.90;;;;;;5115077;28;20449;-74
2021/07/06 01:00:54;;;;;;;13.77;13.27;;;17.10;99.90;;;;;;5114871;28;20456;-74
2021/07/06 01:03:21;;;;;;;14.30;13.60;;;17.10;99.90;;;;;;5114447;28;20510;-75
2021/07/06 01:05:48;;;;;;;14.90;14.20;;;17.20;99.90;;;;;;5114518;28;21028;-74
2021/07/06 01:08:14;;;;;;;15.60;14.43;;;17.20;99.90;;;;;;5114715;28;20441;-73
2021/07/06 01:10:42;;;;;;;16.63;15.73;;;17.20;99.90;;;;;;5114628;28;20452;-74
2021/07/06 01:13:09;;;;;;;17.40;16.30;;;17.20;99.90;;;;;;5114403;28;20449;-75
2021/07/06 01:15:37;;;;;;;16.43;15.43;;;17.10;99.90;;;;;;5114152;28;20457;-73
2021/07/06 01:18:06;;;;;;;17.00;15.83;;;17.10;99.90;;;;;;5114189;28;20447;-74
2021/07/06 01:20:34;;;;;;;16.93;16.00;;;17.10;99.90;;;;;;5114456;28;20445;-74
2021/07/06 01:23:03;;;;;;;15.47;14.53;;;17.10;99.90;;;;;;5114403;28;20488;-73
2021/07/06 01:25:30;;;;;;;15.63;14.73;;;17.10;99.90;;;;;;5114304;28;20509;-73
2021/07/06 01:27:57;;;;;;;16.00;15.03;;;17.20;99.90;;;;;;5112813;28;20449;-74
2021/07/06 01:30:24;;;;;;;16.13;15.33;;;17.20;99.90;;;;;;5114149;28;20926;-74
2021/07/06 01:32:50;;;;;;;16.13;15.03;;;17.20;99.90;;;;;;5113926;28;20442;-75
2021/07/06 01:35:18;;;;;;;16.70;15.53;;;17.20;99.90;;;;;;5113977;28;20973;-74
2021/07/06 01:37:46;;;;;;;16.60;15.63;;;17.10;99.90;;;;;;5114202;28;20525;-74
2021/07/06 01:40:15;;;;;;;17.40;16.30;;;17.10;99.90;;;;;;5114155;28;20449;-76
2021/07/06 01:42:42;;;;;;;17.40;16.40;;;17.00;99.90;;;;;;5113877;28;20480;-75
2021/07/06 01:45:11;;;;;;;17.37;16.33;;;17.00;99.90;;;;;;5113646;28;20521;-74
2021/07/06 01:47:39;;;;;;;17.63;16.57;;;17.00;99.90;;;;;;5113670;28;20506;-75
2021/07/06 01:50:08;;;;;;;18.13;16.90;;;16.90;99.90;;;;;;5113511;28;20478;-74
2021/07/06 01:52:35;;;;;;;18.10;16.90;;;16.90;99.90;;;;;;5113787;28;20449;-74
2021/07/06 01:55:01;;;;;;;17.30;16.30;;;17.00;99.90;;;;;;5113713;28;20502;-74
2021/07/06 01:57:29;;;;;;;17.80;16.80;;;17.00;99.90;;;;;;5113805;28;20452;-75
2021/07/06 01:59:56;;;;;;;17.07;16.03;;;17.00;99.90;;;;;;5113363;28;20446;-74
2021/07/06 02:02:23;;;;;;;18.60;17.50;;;16.90;99.90;;;;;;5113611;28;20477;-74
2021/07/06 02:04:51;;;;;;;17.97;16.87;;;16.90;99.90;;;;;;5113375;28;20498;-74
2021/07/06 02:07:17;;;;;;;18.37;17.27;;;16.90;99.90;;;;;;5113587;28;20526;-74
2021/07/06 02:09:44;;;;;;;18.03;16.83;;;16.80;99.90;;;;;;5113297;28;20442;-74
2021/07/06 02:12:11;;;;;;;18.20;17.20;;;16.80;99.90;;;;;;5113332;28;20450;-74
2021/07/06 02:14:39;;;;;;;17.33;16.10;;;16.90;99.90;;;;;;5113134;28;20457;-75
2021/07/06 02:17:06;;;;;;;17.70;16.70;;;16.80;99.90;;;;;;5113082;28;20433;-74
2021/07/06 02:19:32;;;;;;;17.43;16.43;;;16.80;99.90;;;;;;5113155;28;20457;-74
2021/07/06 02:21:59;;;;;;;17.27;16.17;;;16.70;99.90;;;;;;5113182;28;20449;-73
2021/07/06 02:24:26;;;;;;;17.57;16.67;;;16.70;99.90;;;;;;5113233;28;20795;-74
2021/07/06 02:26:53;;;;;;;17.73;16.23;;;16.80;99.90;;;;;;5112856;28;20939;-74
2021/07/06 02:29:20;;;;;;;16.87;15.87;;;16.70;99.90;;;;;;5112903;28;20489;-74
2021/07/06 02:31:48;;;;;;;17.00;15.77;;;16.70;99.90;;;;;;5113068;28;20513;-74
2021/07/06 02:34:15;;;;;;;17.10;16.10;;;16.60;99.90;;;;;;5112969;28;20449;-74
2021/07/06 02:36:41;;;;;;;17.10;16.20;;;16.60;99.90;;;;;;5112926;28;20819;-74
2021/07/06 02:39:08;;;;;;;17.43;16.43;;;16.60;99.90;;;;;;5112322;28;20452;-74
2021/07/06 02:41:35;;;;;;;16.20;15.30;;;16.60;99.90;;;;;;5112571;28;20441;-74
2021/07/06 02:44:01;;;;;;;16.60;15.60;;;16.50;99.90;;;;;;5112609;28;20507;-74
2021/07/06 02:46:28;;;;;;;17.50;16.50;;;16.50;99.90;;;;;;5112490;28;20488;-74
2021/07/06 02:48:56;;;;;;;17.30;16.30;;;16.40;99.90;;;;;;5112495;28;20449;-74
2021/07/06 02:51:23;;;;;;;17.10;16.40;;;16.40;99.90;;;;;;5112324;28;20476;-74
2021/07/06 02:53:49;;;;;;;17.87;16.77;;;16.40;99.90;;;;;;5112125;28;20595;-74
2021/07/06 02:56:16;;;;;;;17.27;16.43;;;16.40;99.90;;;;;;5112648;28;20449;-73
2021/07/06 02:58:43;;;;;;;17.30;16.40;;;16.40;99.90;;;;;;5112564;28;20457;-73
2021/07/06 03:01:10;;;;;;;17.50;16.50;;;16.40;99.90;;;;;;5112281;28;20448;-74
2021/07/06 03:03:37;;;;;;;18.10;16.90;;;16.40;99.90;;;;;;5112111;28;20508;-74
2021/07/06 03:06:05;;;;;;;17.57;16.57;;;16.30;99.90;;;;;;5112106;28;20453;-74
2021/07/06 03:08:33;;;;;;;17.40;16.50;;;16.30;99.90;;;;;;5112364;28;20529;-73
2021/07/06 03:10:59;;;;;;;18.13;16.83;;;16.30;99.90;;;;;;5112392;28;20463;-73
2021/07/06 03:13:26;;;;;;;18.23;17.20;;;16.30;99.90;;;;;;5112121;28;20449;-73
2021/07/06 03:15:53;;;;;;;18.07;17.10;;;16.20;99.90;;;;;;5111944;28;20480;-74
2021/07/06 03:18:20;;;;;;;18.37;16.97;;;16.20;99.90;;;;;;5111863;28;20453;-75
2021/07/06 03:20:48;;;;;;;18.47;17.10;;;16.20;99.90;;;;;;5112022;28;20456;-74
2021/07/06 03:23:16;;;;;;;17.47;16.63;;;16.30;99.90;;;;;;5112053;28;20481;-75
2021/07/06 03:25:44;;;;;;;18.70;17.80;;;16.30;99.90;;;;;;5112334;28;20449;-74
2021/07/06 03:28:11;;;;;;;18.77;17.47;;;16.20;99.90;;;;;;5111868;28;20463;-74
2021/07/06 03:30:39;;;;;;;18.10;17.07;;;16.20;99.90;;;;;;5111652;28;20737;-74
2021/07/06 03:33:07;;;;;;;18.20;17.07;;;16.30;99.90;;;;;;5111798;28;20441;-74
2021/07/06 03:35:34;;;;;;;18.17;16.97;;;16.30;99.90;;;;;;5111599;28;20450;-74
2021/07/06 03:38:01;;;;;;;18.57;17.47;;;16.30;99.90;;;;;;5111423;28;20453;-74
2021/07/06 03:40:30;;;;;;;17.87;16.87;;;16.30;99.90;;;;;;5111868;28;20442;-75
2021/07/06 03:42:57;;;;;;;18.40;17.40;;;16.40;99.90;;;;;;5111486;28;20473;-75
2021/07/06 03:45:24;;;;;;;17.73;16.70;;;16.30;99.90;;;;;;5111184;28;20484;-74
2021/07/06 03:47:51;;;;;;;17.63;16.47;;;16.30;99.90;;;;;;5111207;28;20866;-74
2021/07/06 03:50:21;;;;;;;17.67;16.57;;;16.30;99.90;;;;;;5110673;28;20460;-74
2021/07/06 03:52:48;;;;;;;18.60;17.20;;;16.40;99.90;;;;;;5111450;28;20437;-74
2021/07/06 03:55:16;;;;;;;18.30;17.00;;;16.40;99.90;;;;;;5111443;28;20781;-74
2021/07/06 03:57:45;;;;;;;17.93;16.60;;;16.40;99.90;;;;;;5111458;28;20942;-74
2021/07/06 04:00:14;;;;;;;17.73;16.63;;;16.40;99.90;;;;;;5111514;28;20445;-74
2021/07/06 04:02:41;;;;;;;17.50;16.50;;;16.40;99.90;;;;;;5111079;28;20854;-74
2021/07/06 04:05:10;;;;;;;17.07;16.13;;;16.40;99.90;;;;;;5111311;28;20494;-74
2021/07/06 04:07:38;;;;;;;17.70;16.50;;;16.40;99.90;;;;;;5111494;28;20449;-74
2021/07/06 04:10:05;;;;;;;16.73;15.63;;;16.50;99.90;;;;;;5111023;28;20442;-76
2021/07/06 04:12:32;;;;;;;16.47;15.60;;;16.50;99.90;;;;;;5111288;28;20449;-76
2021/07/06 04:15:00;;;;;;;16.50;15.20;;;16.50;99.90;;;;;;5111229;28;20486;-76
2021/07/06 04:17:27;;;;;;;15.20;14.30;;;16.60;99.90;;;;;;5111188;28;20966;-76
2021/07/06 04:19:56;;;;;;;16.50;15.23;;;16.60;99.90;;;;;;5111075;28;20449;-76
2021/07/06 04:22:23;;;;;;;17.57;16.27;;;16.70;99.90;;;;;;5110893;28;21012;-76
2021/07/06 04:24:49;;;;;;;17.80;16.33;;;16.80;99.90;;;;;;5110950;28;20450;-74
2021/07/06 04:27:16;;;;;;;18.63;17.40;;;16.80;99.90;;;;;;5111039;28;20479;-72
2021/07/06 04:29:43;;;;;;;17.37;16.30;;;17.00;99.90;;;;;;5106188;28;20473;-74
2021/07/06 04:32:11;;;;;;;16.20;15.30;;;17.50;99.90;;;;;;5101876;28;20453;-74
2021/07/06 04:34:37;;;;;;;17.63;16.40;;;18.00;99.90;;;;;;5110835;28;20449;-74
2021/07/06 04:37:04;;;;;;;17.43;16.20;;;18.50;99.90;;;;;;5110771;28;20449;-73
2021/07/06 04:39:31;;;;;;;17.77;16.30;;;18.90;99.90;;;;;;5110976;28;20802;-73
2021/07/06 04:41:57;;;;;;;16.70;15.40;;;19.20;99.90;;;;;;5111017;28;20538;-74
2021/07/06 04:44:24;;;;;;;17.47;16.03;;;19.40;99.90;;;;;;5110984;28;20492;-74
2021/07/06 04:46:51;;;;;;;17.60;16.53;;;19.30;99.90;;;;;;5110359;28;20481;-74
2021/07/06 04:49:19;;;;;;;16.40;15.10;;;19.00;99.90;;;;;;5110781;28;20449;-74
2021/07/06 04:51:46;;;;;;;16.17;14.87;;;19.20;99.90;;;;;;5110723;28;20464;-75
2021/07/06 04:54:12;;;;;;;17.20;16.10;;;19.90;99.90;;;;;;5111161;28;20444;-73
2021/07/06 04:56:39;;;;;;;17.20;16.07;;;20.60;99.90;;;;;;5110827;28;20464;-74
2021/07/06 04:59:06;;;;;;;17.17;15.90;;;20.90;99.90;;;;;;5110710;28;20445;-74
2021/07/06 05:01:33;;;;;;;16.47;15.53;;;21.00;99.90;;;;;;5112720;28;20442;-74
2021/07/06 05:04:00;;;;;;;16.03;14.97;;;20.90;99.90;;;;;;5114474;28;20485;-74
2021/07/06 05:06:28;;;;;;;16.60;15.50;;;21.20;99.90;;;;;;5114410;28;20552;-74
2021/07/06 05:08:55;;;;;;;15.33;14.50;;;21.70;99.90;;;;;;5114672;28;20463;-74
2021/07/06 05:11:23;;;;;;;16.13;15.17;;;21.90;99.90;;;;;;5114345;28;20445;-73
2021/07/06 05:13:49;;;;;;;13.37;12.77;;;21.50;99.90;;;;;;5113988;28;20900;-74
2021/07/06 05:16:16;;;;;;;14.70;14.00;;;21.30;99.90;;;;;;5114520;28;20460;-74
2021/07/06 05:18:43;;;;;;;15.87;14.77;;;20.90;99.90;;;;;;5114488;28;20460;-71
2021/07/06 05:21:09;;;;;;;16.60;15.50;;;20.50;99.90;;;;;;5114193;28;20847;-71
2021/07/06 05:23:38;;;;;;;16.70;15.40;;;20.10;99.90;;;;;;5113912;28;20484;-72
2021/07/06 05:26:04;;;;;;;16.20;14.97;;;20.00;99.90;;;;;;5114020;28;20456;-73
2021/07/06 05:28:31;;;;;;;15.83;14.60;;;19.70;99.90;;;;;;5114097;28;20563;-73
2021/07/06 05:30:58;;;;;;;16.50;15.23;;;19.70;99.90;;;;;;5114204;28;20452;-73
2021/07/06 05:33:25;;;;;;;15.40;14.50;;;20.00;99.90;;;;;;5113716;28;20495;-72
2021/07/06 05:35:51;;;;;;;13.33;12.73;;;20.50;99.90;;;;;;5113679;28;20465;-72
2021/07/06 05:38:19;;;;;;;14.87;14.00;;;21.10;99.90;;;;;;5113652;28;20843;-72
2021/07/06 05:40:53;;;;;;;15.20;14.00;;;21.70;99.90;;;;;;5114119;28;20553;-72
2021/07/06 05:43:20;;;;;;;18.93;17.30;;;22.10;99.90;;;;;;5113711;28;20477;-72
2021/07/06 05:45:47;;;;;;;18.90;17.37;;;22.30;99.90;;;;;;5113276;28;20480;-72
2021/07/06 05:48:15;;;;;;;16.93;15.37;;;22.60;99.90;;;;;;5113676;28;20445;-72
2021/07/06 05:50:41;;;;;;;15.57;14.30;;;23.00;99.90;;;;;;5113475;28;20457;-72
2021/07/06 05:53:09;;;;;;;13.97;13.27;;;23.20;99.90;;;;;;5113436;28;20464;-72
2021/07/06 05:55:35;;;;;;;14.20;13.40;;;23.30;99.90;;;;;;5113284;28;20756;-72
2021/07/06 05:58:03;;;;;;;14.03;13.23;;;23.60;99.90;;;;;;5113415;28;20518;-72
2021/07/06 06:00:30;;;;;;;13.17;12.53;;;23.90;99.90;;;;;;5113344;28;20453;-72
2021/07/06 06:02:57;;;;;;;14.07;13.37;;;24.10;99.90;;;;;;5113328;28;20453;-72
2021/07/06 06:05:23;;;;;;;16.00;15.00;;;24.50;99.90;;;;;;5113218;28;20454;-71
2021/07/06 06:07:50;;;;;;;16.03;14.93;;;24.70;99.90;;;;;;5113297;28;20467;-72
2021/07/06 06:10:17;;;;;;;15.73;14.53;;;24.80;99.90;;;;;;5113138;28;20456;-72
2021/07/06 06:12:44;;;;;;;16.83;15.70;;;24.80;99.90;;;;;;5112510;28;20518;-74
2021/07/06 06:15:12;;;;;;;17.33;16.30;;;25.00;99.90;;;;;;5113193;28;20438;-72
2021/07/06 06:17:41;;;;;;;17.10;16.00;;;25.90;99.90;;;;;;5113007;28;20457;-72
2021/07/06 06:20:09;;;;;;;15.43;14.43;;;26.70;99.80;;;;;;5113102;28;20454;-73
2021/07/06 06:22:36;;;;;;;15.43;14.73;;;27.50;98.10;;;;;;5113017;28;20445;-76
2021/07/06 06:25:04;;;;;;;15.57;14.53;;;28.20;96.60;;;;;;5112985;28;20481;-76
2021/07/06 06:27:31;;;;;;;15.23;14.53;;;28.20;95.50;;;;;;5110912;28;20441;-76
2021/07/06 06:29:57;;;;;;;15.97;14.97;;;28.50;94.90;;;;;;5112675;28;20479;-75
2021/07/06 06:32:25;;;;;;;15.17;14.10;;;28.70;94.80;;;;;;5112632;28;20441;-76
2021/07/06 06:34:52;;;;;;;15.43;14.50;;;28.90;94.30;;;;;;5112543;28;20438;-76
2021/07/06 06:37:19;;;;;;;17.13;16.03;;;28.90;93.90;;;;;;5112422;28;20461;-76
2021/07/06 06:39:46;;;;;;;15.70;14.90;;;28.90;93.90;;;;;;5112622;28;20452;-76
2021/07/06 06:42:13;;;;;;;15.43;14.53;;;28.70;94.30;;;;;;5112430;28;20452;-76
2021/07/06 06:44:40;;;;;;;15.57;14.63;;;28.60;93.60;;;;;;5111874;28;20545;-76
2021/07/06 06:47:06;;;;;;;14.70;14.00;;;28.40;93.20;;;;;;5112467;28;20441;-76
2021/07/06 06:49:35;;;;;;;14.40;13.60;;;27.80;94.20;;;;;;5111987;28;20461;-78
2021/07/06 06:52:01;;;;;;;14.37;13.50;;;27.90;94.00;;;;;;5112261;28;20453;-77
2021/07/06 06:54:30;;;;;;;14.43;13.70;;;27.70;93.50;;;;;;5112098;28;20445;-77
2021/07/06 06:56:58;;;;;;;14.07;13.27;;;27.70;93.70;;;;;;5109857;28;20445;-77
2021/07/06 06:59:25;;;;;;;15.00;13.67;;;27.90;93.90;;;;;;5112105;28;20800;-78
2021/07/06 07:02:16;;;;;;;14.33;13.63;;;28.10;93.30;;;;;;5112138;28;20446;-77
2021/07/06 07:04:39;;;;;;;14.10;13.23;;;28.40;93.20;;;;;;5111784;28;20477;-77
2021/07/06 07:07:07;;;;;;;14.47;13.70;;;28.60;92.50;;;;;;5111836;28;20450;-78
2021/07/06 07:09:33;;;;;;;14.87;14.23;;;28.90;92.40;;;;;;5111979;28;20534;-78
2021/07/06 07:12:00;;;;;;;14.33;13.77;;;29.60;91.90;;;;;;5112185;28;20452;-77
2021/07/06 07:14:27;;;;;;;15.30;14.60;;;30.30;90.20;;;;;;5112100;28;20441;-78
2021/07/06 07:16:53;;;;;;;15.00;14.30;;;30.40;90.20;;;;;;5111772;28;20475;-78
2021/07/06 07:19:20;;;;;;;14.70;14.00;;;30.80;88.70;;;;;;5111856;28;20446;-78
2021/07/06 07:21:48;;;;;;;15.03;14.20;;;30.80;88.10;;;;;;5112106;28;20441;-77
2021/07/06 07:24:16;;;;;;;13.70;13.10;;;30.00;90.00;;;;;;5111154;28;20481;-77
2021/07/06 07:26:43;;;;;;;14.37;13.67;;;29.30;91.50;;;;;;5111969;28;20457;-76
2021/07/06 07:29:09;;;;;;;13.73;13.20;;;28.90;92.20;;;;;;5111701;28;20935;-77
2021/07/06 07:31:37;;;;;;;13.30;12.50;;;28.50;93.20;;;;;;5111594;28;20456;-78
2021/07/06 07:34:03;;;;;;;12.93;12.10;;;28.70;93.10;;;;;;5111725;28;20548;-78
2021/07/06 07:36:30;;;;;;;13.57;13.13;;;29.30;92.30;;;;;;5111849;28;20476;-77
2021/07/06 07:38:59;;;;;;;13.97;13.27;;;29.50;91.90;;;;;;5111807;28;20449;-78
2021/07/06 07:41:26;;;;;;;14.40;13.80;;;29.70;92.10;;;;;;5111562;28;20438;-78
2021/07/06 07:43:54;;;;;;;15.47;14.43;;;30.30;90.50;;;;;;5111545;28;20484;-78
2021/07/06 07:46:21;;;;;;;13.80;13.10;;;30.10;91.00;;;;;;5111067;28;20542;-78
2021/07/06 07:48:47;;;;;;;14.10;13.50;;;30.30;90.80;;;;;;5111447;28;20453;-78
2021/07/06 07:51:15;;;;;;;14.83;14.03;;;30.60;90.50;;;;;;5111560;28;20502;-79
2021/07/06 07:53:41;;;;;;;13.97;13.40;;;30.70;90.60;;;;;;5111314;28;20445;-78
2021/07/06 07:56:09;;;;;;;13.87;13.37;;;31.00;89.70;;;;;;5111143;28;20497;-77
2021/07/06 07:58:36;;;;;;;13.17;12.67;;;31.10;90.00;;;;;;5111233;28;20820;-77
2021/07/06 08:01:04;;;;;;;15.47;14.77;;;30.40;90.30;;;;;;5111195;28;20445;-76
2021/07/06 08:03:30;;;;;;;14.20;13.60;;;30.20;91.00;;;;;;5111445;28;20923;-77
2021/07/06 08:05:57;;;;;;;13.90;13.10;;;30.70;90.60;;;;;;5111231;28;20935;-76
2021/07/06 08:08:24;;;;;;;12.97;12.37;;;30.20;90.70;;;;;;5111182;28;20445;-76
2021/07/06 08:10:52;;;;;;;13.70;12.90;;;29.90;91.40;;;;;;5111245;28;20457;-76
2021/07/06 08:13:21;;;;;;;13.87;12.97;;;29.50;92.20;;;;;;5111128;28;20445;-76
2021/07/06 08:15:48;;;;;;;13.83;13.00;;;28.90;93.40;;;;;;5111089;28;20445;-76
2021/07/06 08:18:15;;;;;;;13.10;12.50;;;28.40;93.70;;;;;;5111138;28;20464;-76
2021/07/06 08:20:42;;;;;;;13.27;12.87;;;28.20;94.20;;;;;;5111136;28;20445;-76
2021/07/06 08:23:09;;;;;;;13.73;13.00;;;28.20;94.10;;;;;;5111182;28;20494;-77
2021/07/06 08:25:36;;;;;;;13.40;12.93;;;29.00;92.60;;;;;;5111317;28;20492;-77
2021/07/06 08:28:03;;;;;;;15.20;14.30;;;29.80;91.10;;;;;;5111406;28;20453;-77
2021/07/06 08:30:32;;;;;;;14.80;13.90;;;30.20;90.20;;;;;;5111458;28;20457;-78
2021/07/06 08:32:58;;;;;;;14.43;13.83;;;30.60;89.50;;;;;;5111558;28;20855;-79
2021/07/06 08:35:25;;;;;;;12.50;12.10;;;31.10;87.20;;;;;;5111679;28;20448;-78
2021/07/06 08:37:52;;;;;;;13.33;12.83;;;31.30;86.70;;;;;;5115201;28;20582;-78
2021/07/06 08:40:20;;;;;;;15.20;14.40;;;32.30;85.10;;;;;;5115223;28;20818;-78
2021/07/06 08:42:48;;;;;;;13.93;13.47;;;32.90;81.30;;;;;;5115353;28;20494;-79
2021/07/06 08:45:15;;;;;;;14.17;13.30;;;33.40;81.20;;;;;;5114921;28;20599;-78
2021/07/06 08:47:46;;;;;;;14.33;13.63;;;33.50;78.40;;;;;;5113222;28;20441;-79
2021/07/06 08:50:13;;;;;;;13.97;13.37;;;32.70;79.20;;;;;;5115879;28;20441;-78
2021/07/06 08:52:45;;;;;;;13.87;13.37;;;32.90;80.60;;;;;;5115037;28;20449;-77
2021/07/06 08:55:12;;;;;;;14.57;14.07;;;33.70;79.90;;;;;;5115221;28;20441;-76
2021/07/06 08:57:39;;;;;;;14.00;13.50;;;33.70;77.60;;;;;;5115164;28;20551;-76
2021/07/06 09:00:08;;;;;;;12.90;12.50;;;33.30;79.30;;;;;;5115011;28;20799;-77
2021/07/06 09:02:34;;;;;;;13.10;12.70;;;33.60;79.00;;;;;;5114803;28;20456;-76
2021/07/06 09:05:03;;;;;;;13.77;13.37;;;33.70;77.30;;;;;;5114776;28;20872;-77
2021/07/06 09:07:40;;;;;;;13.40;12.90;;;33.90;77.10;;;;;;5115009;28;20449;-78
2021/07/06 09:10:12;;;;;;;14.20;13.60;;;34.70;75.10;;;;;;5114435;28;20465;-76
2021/07/06 09:12:39;;;;;;;14.33;13.83;;;35.20;73.90;;;;;;5113399;28;20441;-77
2021/07/06 09:15:19;;;;;;;13.80;13.30;;;34.70;74.00;;;;;;5116202;28;20441;-76
2021/07/06 09:17:46;;;;;;;13.93;13.43;;;34.40;73.90;;;;;;5116541;28;20460;-77
2021/07/06 09:20:15;;;;;;;13.77;13.23;;;33.60;74.80;;;;;;5114417;28;20818;-75
2021/07/06 09:22:42;;;;;;;13.63;13.13;;;32.80;77.10;;;;;;5114317;28;20445;-76
2021/07/06 09:25:10;;;;;;;14.17;13.67;;;32.30;79.60;;;;;;5114294;28;20495;-76
2021/07/06 09:27:38;;;;;;;13.27;12.77;;;32.30;80.50;;;;;;5113954;28;20450;-76
2021/07/06 09:30:09;;;;;;;13.57;12.73;;;32.30;80.70;;;;;;5114264;28;20456;-76
2021/07/06 09:32:38;;;;;;;15.17;14.27;;;31.80;81.50;;;;;;5114317;28;20510;-76
2021/07/06 09:35:07;;;;;;;14.93;14.33;;;29.90;87.70;;;;;;5114149;28;20452;-76
2021/07/06 09:37:45;;;;;;;13.97;13.10;;;28.00;93.40;;;;;;5114035;28;20952;-76
2021/07/06 09:40:23;;;;;;;14.20;12.80;;;26.80;96.90;;;;;;5114103;28;20445;-75
2021/07/06 09:43:20;;;;;;;14.17;13.40;;;26.30;98.40;;;;;;5113911;28;20448;-75
2021/07/06 09:46:02;;;;;;;13.53;12.63;;;26.10;99.60;;;;;;5113662;28;20576;-75
2021/07/06 09:48:30;;;;;;;13.23;12.73;;;26.00;99.40;;;;;;5113191;28;20473;-76
2021/07/06 09:51:15;;;;;;;13.30;12.60;;;26.00;98.70;;;;;;5113968;28;20589;-75
2021/07/06 09:53:46;;;;;;;14.10;13.03;;;25.40;98.60;;;;;;5113858;28;20464;-76
2021/07/06 09:56:16;;;;;;;11.17;10.77;;;25.20;99.40;;;;;;5113719;28;20437;-75
2021/07/06 09:58:54;;;;;;;11.73;11.23;;;24.80;99.80;;;;;;5108075;28;20952;-75
2021/07/06 10:01:21;;;;;;;12.47;11.97;;;24.90;99.90;;;;;;5104312;28;20557;-75
2021/07/06 10:03:49;;;;;;;11.40;10.67;;;25.40;99.80;;;;;;5100678;28;20447;-76
2021/07/06 10:06:17;;;;;;;11.20;10.80;;;25.90;98.10;;;;;;5093171;28;21002;-77
2021/07/06 10:08:45;;;;;;;11.40;11.00;;;26.20;97.60;;;;;;5093299;28;20457;-76
2021/07/06 10:11:12;;;;;;;12.20;11.30;;;26.90;97.40;;;;;;5093103;28;20465;-77
2021/07/06 10:13:39;;;;;;;12.27;11.77;;;27.00;96.80;;;;;;5093010;28;20571;-77
2021/07/06 10:16:06;;;;;;;12.00;11.60;;;27.10;96.20;;;;;;5101268;28;20437;-78
2021/07/06 10:18:34;;;;;;;11.83;11.33;;;27.80;95.80;;;;;;5112873;28;20442;-77
2021/07/06 10:21:01;;;;;;;12.70;12.20;;;28.90;93.70;;;;;;5109826;28;20946;-78
2021/07/06 10:23:28;;;;;;;12.57;12.07;;;28.20;93.80;;;;;;5113065;28;20449;-77
2021/07/06 10:25:58;;;;;;;12.10;11.60;;;28.00;95.00;;;;;;5113270;28;20491;-77
2021/07/06 10:28:27;;;;;;;12.67;12.07;;;28.20;94.10;;;;;;5113137;28;20473;-76
2021/07/06 10:30:55;;;;;;;13.03;12.43;;;28.30;93.90;;;;;;5112956;28;20684;-77
2021/07/06 10:33:29;;;;;;;12.33;11.87;;;28.60;94.00;;;;;;5102521;28;20443;-76
2021/07/06 10:35:56;;;;;;;13.20;12.10;;;28.60;93.50;;;;;;5092688;28;20478;-77
2021/07/06 10:38:44;;;;;;;12.40;12.00;;;28.60;93.30;;;;;;5092547;28;20457;-77
2021/07/06 10:41:15;;;;;;;12.60;12.10;;;28.40;93.70;;;;;;5092515;28;20446;-76
2021/07/06 10:43:57;;;;;;;12.33;11.93;;;28.40;94.20;;;;;;5092488;28;20446;-76
2021/07/06 10:46:45;;;;;;;11.97;11.57;;;28.10;94.00;;;;;;5089284;28;20589;-77
2021/07/06 10:49:15;;;;;;;13.50;13.00;;;28.00;94.60;;;;;;5092618;28;20481;-76
2021/07/06 10:51:53;;;;;;;13.07;12.57;;;28.60;94.80;;;;;;5092577;28;20958;-76
2021/07/06 10:54:37;;;;;;;12.77;12.37;;;28.40;94.00;;;;;;5092604;28;20477;-76
2021/07/06 10:57:26;;;;;;;12.97;12.57;;;28.10;94.80;;;;;;5090537;28;20850;-76
2021/07/06 10:59:55;;;;;;;12.30;11.70;;;28.20;95.30;;;;;;5089279;28;20452;-76
2021/07/06 11:02:24;;;;;;;12.27;11.77;;;28.60;95.10;;;;;;5092178;28;20438;-76
2021/07/06 11:04:54;;;;;;;12.97;12.37;;;28.60;94.70;;;;;;5092048;28;20570;-76
2021/07/06 11:07:57;;;;;;;12.90;12.47;;;28.40;94.50;;;;;;5101082;28;20450;-77
2021/07/06 11:10:38;;;;;;;13.50;13.00;;;28.80;94.20;;;;;;5112482;28;20440;-77
2021/07/06 11:13:18;;;;;;;13.00;12.60;;;29.60;93.30;;;;;;5112323;28;20445;-77
2021/07/06 11:15:45;;;;;;;16.57;15.30;;;30.10;92.80;;;;;;5112219;28;20933;-77
2021/07/06 11:18:11;;;;;;;13.37;12.77;;;29.50;93.20;;;;;;5112318;28;20445;-77
2021/07/06 11:20:41;;;;;;;13.00;12.50;;;29.60;93.50;;;;;;5112198;28;20438;-77
2021/07/06 11:23:09;;;;;;;12.93;12.43;;;29.80;92.70;;;;;;5112286;28;20437;-78
2021/07/06 11:25:45;;;;;;;13.57;13.00;;;30.30;92.30;;;;;;5111947;28;20912;-77
2021/07/06 11:28:13;;;;;;;13.93;13.30;;;31.00;90.40;;;;;;5112110;28;20445;-77
2021/07/06 11:30:44;;;;;;;13.80;13.30;;;31.30;90.30;;;;;;5111765;28;20475;-77
2021/07/06 11:33:12;;;;;;;13.77;13.17;;;31.60;90.30;;;;;;5111853;28;20445;-77
2021/07/06 11:35:40;;;;;;;13.30;12.90;;;31.70;88.80;;;;;;5111758;28;20442;-77
2021/07/06 11:38:08;;;;;;;12.87;12.47;;;31.40;88.20;;;;;;5111703;28;20949;-77
2021/07/06 11:40:37;;;;;;;13.20;12.77;;;30.30;90.40;;;;;;5111920;28;20445;-76
2021/07/06 11:43:04;;;;;;;12.57;12.17;;;29.80;91.40;;;;;;5111713;28;20472;-76
2021/07/06 11:45:31;;;;;;;12.80;12.30;;;29.70;91.80;;;;;;5111390;28;20593;-77
2021/07/06 11:48:08;;;;;;;11.83;11.33;;;29.40;92.10;;;;;;5111772;28;20452;-77
2021/07/06 11:50:35;;;;;;;12.67;12.07;;;29.00;92.60;;;;;;5111698;28;20441;-77
2021/07/06 11:53:01;;;;;;;12.47;12.07;;;28.70;93.50;;;;;;5111551;28;20457;-77
2021/07/06 11:55:30;;;;;;;12.40;11.90;;;28.30;93.50;;;;;;5111794;28;20445;-77
2021/07/06 11:57:59;;;;;;;11.80;11.40;;;27.80;94.40;;;;;;5111633;28;20462;-76
2021/07/06 12:00:27;;;;;;;12.03;11.53;;;27.30;95.00;;;;;;5111317;28;20449;-76
2021/07/06 12:03:20;;;;;;;13.33;12.87;;;27.40;95.10;;;;;;5111236;28;20453;-76
2021/07/06 12:05:48;;;;;;;13.50;13.10;;;27.60;97.20;;;;;;5111186;28;20480;-77
2021/07/06 12:08:17;;;;;;;13.70;13.20;;;27.20;97.50;;;;;;5094697;28;20450;-76
2021/07/06 12:11:02;;;;;;;13.40;12.80;;;27.00;98.30;;;;;;5090677;28;20454;-76
2021/07/06 12:13:31;;;;;;;13.00;12.50;;;26.70;97.60;;;;;;5091161;28;20446;-76
2021/07/06 12:16:02;;;;;;;13.40;12.87;;;26.70;97.70;;;;;;5091160;28;21204;-77
2021/07/06 12:18:32;;;;;;;12.50;12.10;;;27.10;97.40;;;;;;5091197;28;20470;-77
2021/07/06 12:21:01;;;;;;;12.57;12.17;;;27.70;96.50;;;;;;5090922;28;20450;-76
2021/07/06 12:23:28;;;;;;;12.63;12.23;;;28.40;94.80;;;;;;5090969;28;20445;-77
2021/07/06 12:25:56;;;;;;;13.23;12.83;;;29.30;93.30;;;;;;5089285;28;20889;-77
2021/07/06 12:28:23;;;;;;;12.43;12.03;;;30.10;92.10;;;;;;5090923;28;20835;-76
2021/07/06 12:31:16;;;;;;;12.73;12.20;;;30.10;91.20;;;;;;5090957;28;20446;-77
2021/07/06 12:33:45;;;;;;;12.10;11.80;;;29.80;91.10;;;;;;5096039;28;20473;-77
2021/07/06 12:36:13;;;;;;;12.07;11.77;;;29.40;91.60;;;;;;5094344;28;20442;-76